sensor_id;sensor_type;location;lat;lon;timestamp;pressure;altitude;pressure_sealevel;temperature;humidity
46778;BME280;32536;47.128;8.746;2022-08-25T00:01:34;91805.50;;;19.86;43.17
46778;BME280;32536;47.128;8.746;2022-08-25T00:04:06;91793.25;;;19.81;42.95
46778;BME280;32536;47.128;8.746;2022-08-25T00:06:39;91799.88;;;19.80;42.40
46778;BME280;32536;47.128;8.746;2022-08-25T00:09:08;91799.31;;;19.76;42.72
46778;BME280;32536;47.128;8.746;2022-08-25T00:11:37;91792.53;;;19.72;42.72
46778;BME280;32536;47.128;8.746;2022-08-25T00:14:13;91795.41;;;19.68;43.54
46778;BME280;32536;47.128;8.746;2022-08-25T00:16:42;91784.69;;;19.64;43.20
46778;BME280;32536;47.128;8.746;2022-08-25T00:19:13;91795.25;;;19.62;43.45
46778;BME280;32536;47.128;8.746;2022-08-25T00:21:45;91796.47;;;19.61;43.44
46778;BME280;32536;47.128;8.746;2022-08-25T00:24:15;91793.88;;;19.67;43.46
46778;BME280;32536;47.128;8.746;2022-08-25T00:26:44;91784.47;;;19.77;43.28
46778;BME280;32536;47.128;8.746;2022-08-25T00:29:12;91785.22;;;19.87;43.25
46778;BME280;32536;47.128;8.746;2022-08-25T00:31:40;91787.03;;;19.90;42.97
46778;BME280;32536;47.128;8.746;2022-08-25T00:34:13;91775.59;;;19.86;43.87
46778;BME280;32536;47.128;8.746;2022-08-25T00:36:42;91791.16;;;19.76;43.34
46778;BME280;32536;47.128;8.746;2022-08-25T00:39:10;91780.78;;;19.65;43.35
46778;BME280;32536;47.128;8.746;2022-08-25T00:41:40;91784.44;;;19.53;43.67
46778;BME280;32536;47.128;8.746;2022-08-25T00:44:11;91778.28;;;19.43;43.53
46778;BME280;32536;47.128;8.746;2022-08-25T00:46:42;91777.66;;;19.39;43.73
46778;BME280;32536;47.128;8.746;2022-08-25T00:49:42;91771.66;;;19.35;44.80
46778;BME280;32536;47.128;8.746;2022-08-25T00:52:33;91775.09;;;19.35;44.18
46778;BME280;32536;47.128;8.746;2022-08-25T00:57:45;91785.22;;;19.35;43.58
46778;BME280;32536;47.128;8.746;2022-08-25T01:00:39;91778.59;;;19.36;44.43
46778;BME280;32536;47.128;8.746;2022-08-25T01:03:08;91777.97;;;19.41;43.52
46778;BME280;32536;47.128;8.746;2022-08-25T01:05:36;91781.91;;;19.40;43.34
46778;BME280;32536;47.128;8.746;2022-08-25T01:08:06;91777.81;;;19.35;43.86
46778;BME280;32536;47.128;8.746;2022-08-25T01:10:35;91777.81;;;19.35;43.86
46778;BME280;32536;47.128;8.746;2022-08-25T01:13:20;91784.63;;;19.40;44.71
46778;BME280;32536;47.128;8.746;2022-08-25T01:15:54;91773.88;;;19.46;44.00
46778;BME280;32536;47.128;8.746;2022-08-25T01:18:22;91783.53;;;19.47;43.46
46778;BME280;32536;47.128;8.746;2022-08-25T01:20:51;91776.13;;;19.47;43.71
46778;BME280;32536;47.128;8.746;2022-08-25T01:23:21;91781.13;;;19.49;43.57
46778;BME280;32536;47.128;8.746;2022-08-25T01:26:05;91784.75;;;19.46;44.15
46778;BME280;32536;47.128;8.746;2022-08-25T01:28:35;91783.09;;;19.48;43.90
46778;BME280;32536;47.128;8.746;2022-08-25T01:31:03;91787.00;;;19.47;44.14
46778;BME280;32536;47.128;8.746;2022-08-25T01:34:01;91779.75;;;19.44;45.80
46778;BME280;32536;47.128;8.746;2022-08-25T01:36:29;91773.88;;;19.46;43.50
46778;BME280;32536;47.128;8.746;2022-08-25T01:38:56;91774.50;;;19.41;43.77
46778;BME280;32536;47.128;8.746;2022-08-25T01:44:01;91774.22;;;19.39;43.50
46778;BME280;32536;47.128;8.746;2022-08-25T01:46:31;91769.06;;;19.41;43.41
46778;BME280;32536;47.128;8.746;2022-08-25T01:49:03;91753.53;;;19.41;44.19
46778;BME280;32536;47.128;8.746;2022-08-25T01:51:39;91759.13;;;19.38;44.61
46778;BME280;32536;47.128;8.746;2022-08-25T01:54:09;91767.44;;;19.34;43.76
46778;BME280;32536;47.128;8.746;2022-08-25T01:56:36;91770.88;;;19.34;43.94
46778;BME280;32536;47.128;8.746;2022-08-25T01:59:03;91773.75;;;19.40;43.59
46778;BME280;32536;47.128;8.746;2022-08-25T02:01:30;91774.16;;;19.48;43.67
46778;BME280;32536;47.128;8.746;2022-08-25T02:03:57;91765.84;;;19.51;43.85
46778;BME280;32536;47.128;8.746;2022-08-25T02:06:30;91775.22;;;19.50;44.42
46778;BME280;32536;47.128;8.746;2022-08-25T02:09:01;91767.06;;;19.50;43.95
46778;BME280;32536;47.128;8.746;2022-08-25T02:11:36;91764.06;;;19.48;44.17
46778;BME280;32536;47.128;8.746;2022-08-25T02:14:04;91764.69;;;19.43;43.88
46778;BME280;32536;47.128;8.746;2022-08-25T02:16:34;91766.34;;;19.41;44.05
46778;BME280;32536;47.128;8.746;2022-08-25T02:19:04;91769.81;;;19.41;43.87
46778;BME280;32536;47.128;8.746;2022-08-25T02:21:32;91769.19;;;19.46;43.60
46778;BME280;32536;47.128;8.746;2022-08-25T02:24:01;91765.75;;;19.46;43.66
46778;BME280;32536;47.128;8.746;2022-08-25T02:26:28;91763.94;;;19.43;43.92
46778;BME280;32536;47.128;8.746;2022-08-25T02:28:55;91760.91;;;19.41;43.74
46778;BME280;32536;47.128;8.746;2022-08-25T02:31:23;91761.38;;;19.39;43.96
46778;BME280;32536;47.128;8.746;2022-08-25T02:34:04;91764.56;;;19.38;44.94
46778;BME280;32536;47.128;8.746;2022-08-25T02:36:32;91761.38;;;19.39;44.10
46778;BME280;32536;47.128;8.746;2022-08-25T02:38:59;91771.03;;;19.40;44.38
46778;BME280;32536;47.128;8.746;2022-08-25T02:41:26;91758.03;;;19.44;44.08
46778;BME280;32536;47.128;8.746;2022-08-25T02:43:54;91764.22;;;19.45;44.13
46778;BME280;32536;47.128;8.746;2022-08-25T02:46:22;91763.75;;;19.46;44.09
46778;BME280;32536;47.128;8.746;2022-08-25T02:48:50;91760.41;;;19.51;43.87
46778;BME280;32536;47.128;8.746;2022-08-25T02:51:22;91768.25;;;19.59;43.85
46778;BME280;32536;47.128;8.746;2022-08-25T02:53:50;91764.91;;;19.64;43.67
46778;BME280;32536;47.128;8.746;2022-08-25T02:56:18;91764.00;;;19.67;43.80
46778;BME280;32536;47.128;8.746;2022-08-25T02:58:46;91762.31;;;19.70;43.52
46778;BME280;32536;47.128;8.746;2022-08-25T03:01:14;91762.16;;;19.73;43.50
46778;BME280;32536;47.128;8.746;2022-08-25T03:03:43;91747.38;;;19.74;43.43
46778;BME280;32536;47.128;8.746;2022-08-25T03:06:13;91765.91;;;19.76;43.24
46778;BME280;32536;47.128;8.746;2022-08-25T03:08:42;91760.03;;;19.77;43.29
46778;BME280;32536;47.128;8.746;2022-08-25T03:11:10;91763.19;;;19.76;43.34
46778;BME280;32536;47.128;8.746;2022-08-25T03:13:38;91765.50;;;19.68;43.43
46778;BME280;32536;47.128;8.746;2022-08-25T03:16:06;91766.75;;;19.58;43.77
46778;BME280;32536;47.128;8.746;2022-08-25T03:18:33;91767.53;;;19.49;43.87
46778;BME280;32536;47.128;8.746;2022-08-25T03:21:00;91768.47;;;19.46;43.89
46778;BME280;32536;47.128;8.746;2022-08-25T03:23:28;91762.72;;;19.44;43.91
46778;BME280;32536;47.128;8.746;2022-08-25T03:25:55;91769.81;;;19.41;43.93
46778;BME280;32536;47.128;8.746;2022-08-25T03:28:41;91763.03;;;19.36;43.95
46778;BME280;32536;47.128;8.746;2022-08-25T03:31:08;91766.50;;;19.37;43.99
46778;BME280;32536;47.128;8.746;2022-08-25T03:34:06;91773.91;;;19.36;45.13
46778;BME280;32536;47.128;8.746;2022-08-25T03:36:34;91760.91;;;19.41;43.63
46778;BME280;32536;47.128;8.746;2022-08-25T03:39:00;91763.63;;;19.41;43.60
46778;BME280;32536;47.128;8.746;2022-08-25T03:41:29;91768.47;;;19.36;43.96
46778;BME280;32536;47.128;8.746;2022-08-25T03:44:02;91764.88;;;19.30;44.05
46778;BME280;32536;47.128;8.746;2022-08-25T03:46:38;91770.78;;;19.19;45.11
46778;BME280;32536;47.128;8.746;2022-08-25T03:49:08;91757.81;;;19.14;44.32
46778;BME280;32536;47.128;8.746;2022-08-25T03:51:40;91774.72;;;19.09;44.91
46778;BME280;32536;47.128;8.746;2022-08-25T03:54:09;91766.13;;;19.11;44.38
46778;BME280;32536;47.128;8.746;2022-08-25T03:56:37;91764.44;;;19.13;44.29
46778;BME280;32536;47.128;8.746;2022-08-25T03:59:04;91756.78;;;19.12;44.42
46778;BME280;32536;47.128;8.746;2022-08-25T04:01:35;91765.34;;;19.10;44.52
46778;BME280;32536;47.128;8.746;2022-08-25T04:04:03;91764.75;;;19.15;44.19
46778;BME280;32536;47.128;8.746;2022-08-25T04:06:30;91759.03;;;19.13;44.37
46778;BME280;32536;47.128;8.746;2022-08-25T04:08:58;91769.88;;;19.13;44.35
46778;BME280;32536;47.128;8.746;2022-08-25T04:11:26;91769.56;;;19.11;44.57
46778;BME280;32536;47.128;8.746;2022-08-25T04:13:56;91761.59;;;19.08;44.86
46778;BME280;32536;47.128;8.746;2022-08-25T04:16:28;91760.25;;;19.03;45.48
46778;BME280;32536;47.128;8.746;2022-08-25T04:18:58;91764.75;;;19.06;44.46
46778;BME280;32536;47.128;8.746;2022-08-25T04:21:27;91769.44;;;19.06;44.37
46778;BME280;32536;47.128;8.746;2022-08-25T04:23:55;91774.25;;;19.01;44.64
46778;BME280;32536;47.128;8.746;2022-08-25T04:26:35;91761.94;;;18.91;45.33
46778;BME280;32536;47.128;8.746;2022-08-25T04:29:04;91763.44;;;18.92;44.81
46778;BME280;32536;47.128;8.746;2022-08-25T04:31:33;91759.66;;;18.90;44.78
46778;BME280;32536;47.128;8.746;2022-08-25T04:34:13;91756.47;;;18.82;45.64
46778;BME280;32536;47.128;8.746;2022-08-25T04:36:39;91753.59;;;18.85;44.91
46778;BME280;32536;47.128;8.746;2022-08-25T04:39:06;91765.38;;;18.82;45.08
46778;BME280;32536;47.128;8.746;2022-08-25T04:41:33;91755.41;;;18.79;44.95
46778;BME280;32536;47.128;8.746;2022-08-25T04:44:00;91754.66;;;18.79;45.00
46778;BME280;32536;47.128;8.746;2022-08-25T04:46:31;91754.22;;;18.80;44.86
46778;BME280;32536;47.128;8.746;2022-08-25T04:48:59;91743.81;;;18.79;44.75
46778;BME280;32536;47.128;8.746;2022-08-25T04:51:33;91747.13;;;18.73;45.77
46778;BME280;32536;47.128;8.746;2022-08-25T04:54:05;91745.31;;;18.70;45.32
46778;BME280;32536;47.128;8.746;2022-08-25T04:56:39;91743.34;;;18.71;45.01
46778;BME280;32536;47.128;8.746;2022-08-25T04:59:09;91739.59;;;18.68;45.24
46778;BME280;32536;47.128;8.746;2022-08-25T05:01:38;91739.75;;;18.65;45.05
46778;BME280;32536;47.128;8.746;2022-08-25T05:04:09;91739.75;;;18.65;45.27
46778;BME280;32536;47.128;8.746;2022-08-25T05:06:37;91741.41;;;18.62;45.37
46778;BME280;32536;47.128;8.746;2022-08-25T05:09:04;91746.09;;;18.62;45.50
46778;BME280;32536;47.128;8.746;2022-08-25T05:11:31;91738.69;;;18.62;45.71
46778;BME280;32536;47.128;8.746;2022-08-25T05:13:59;91739.75;;;18.65;45.51
46778;BME280;32536;47.128;8.746;2022-08-25T05:16:27;91738.69;;;18.71;45.28
46778;BME280;32536;47.128;8.746;2022-08-25T05:18:56;91739.13;;;18.79;45.08
46778;BME280;32536;47.128;8.746;2022-08-25T05:21:25;91738.25;;;18.82;45.19
46778;BME280;32536;47.128;8.746;2022-08-25T05:23:58;91741.38;;;18.81;45.32
46778;BME280;32536;47.128;8.746;2022-08-25T05:26:28;91735.97;;;18.81;45.39
46778;BME280;32536;47.128;8.746;2022-08-25T05:28:57;91736.84;;;18.87;45.33
46778;BME280;32536;47.128;8.746;2022-08-25T05:31:26;91739.41;;;18.91;45.39
46778;BME280;32536;47.128;8.746;2022-08-25T05:34:14;91730.41;;;18.94;46.21
46778;BME280;32536;47.128;8.746;2022-08-25T05:36:43;91736.88;;;18.96;45.36
46778;BME280;32536;47.128;8.746;2022-08-25T05:39:09;91740.50;;;18.93;45.60
46778;BME280;32536;47.128;8.746;2022-08-25T05:41:37;91745.19;;;18.93;45.69
46778;BME280;32536;47.128;8.746;2022-08-25T05:44:04;91732.19;;;18.97;45.73
46778;BME280;32536;47.128;8.746;2022-08-25T05:46:31;91734.75;;;19.00;45.56
46778;BME280;32536;47.128;8.746;2022-08-25T05:48:58;91738.53;;;19.03;45.72
46778;BME280;32536;47.128;8.746;2022-08-25T05:51:25;91737.16;;;19.08;45.81
46778;BME280;32536;47.128;8.746;2022-08-25T05:53:52;91738.34;;;19.16;45.78
46778;BME280;32536;47.128;8.746;2022-08-25T05:56:19;91732.44;;;19.27;45.56
46778;BME280;32536;47.128;8.746;2022-08-25T05:58:47;91730.91;;;19.35;45.57
46778;BME280;32536;47.128;8.746;2022-08-25T06:01:32;91729.06;;;19.41;46.91
46778;BME280;32536;47.128;8.746;2022-08-25T06:04:18;91722.84;;;19.50;45.41
46778;BME280;32536;47.128;8.746;2022-08-25T06:06:45;91727.38;;;19.53;45.24
46778;BME280;32536;47.128;8.746;2022-08-25T06:09:13;91727.78;;;19.61;45.14
46778;BME280;32536;47.128;8.746;2022-08-25T06:11:40;91719.94;;;19.63;45.35
46778;BME280;32536;47.128;8.746;2022-08-25T06:14:08;91724.13;;;19.64;45.32
46778;BME280;32536;47.128;8.746;2022-08-25T06:16:37;91720.69;;;19.63;45.87
46778;BME280;32536;47.128;8.746;2022-08-25T06:19:05;91721.31;;;19.58;45.79
46778;BME280;32536;47.128;8.746;2022-08-25T06:21:33;91720.28;;;19.56;45.93
46778;BME280;32536;47.128;8.746;2022-08-25T06:24:18;91720.72;;;19.54;45.82
46778;BME280;32536;47.128;8.746;2022-08-25T06:26:44;91712.88;;;19.56;45.80
46778;BME280;32536;47.128;8.746;2022-08-25T06:29:12;91713.16;;;19.58;46.03
46778;BME280;32536;47.128;8.746;2022-08-25T06:31:39;91712.41;;;19.58;46.32
46778;BME280;32536;47.128;8.746;2022-08-25T06:34:18;91709.41;;;19.56;49.07
46778;BME280;32536;47.128;8.746;2022-08-25T06:36:45;91708.78;;;19.61;46.28
46778;BME280;32536;47.128;8.746;2022-08-25T06:39:11;91703.16;;;19.64;46.19
46778;BME280;32536;47.128;8.746;2022-08-25T06:41:38;91701.78;;;19.69;46.39
46778;BME280;32536;47.128;8.746;2022-08-25T06:44:05;91701.91;;;19.75;46.08
46778;BME280;32536;47.128;8.746;2022-08-25T06:46:32;91693.88;;;19.80;46.11
46778;BME280;32536;47.128;8.746;2022-08-25T06:48:59;91702.03;;;19.90;46.33
46778;BME280;32536;47.128;8.746;2022-08-25T06:51:26;91703.94;;;19.98;46.09
46778;BME280;32536;47.128;8.746;2022-08-25T06:53:53;91699.66;;;20.07;46.20
46778;BME280;32536;47.128;8.746;2022-08-25T06:56:20;91703.69;;;20.11;46.17
46778;BME280;32536;47.128;8.746;2022-08-25T06:58:48;91696.13;;;20.15;46.13
46778;BME280;32536;47.128;8.746;2022-08-25T07:01:20;91699.88;;;20.18;47.68
46778;BME280;32536;47.128;8.746;2022-08-25T07:03:54;91699.22;;;20.23;47.21
46778;BME280;32536;47.128;8.746;2022-08-25T07:06:23;91700.84;;;20.30;46.15
46778;BME280;32536;47.128;8.746;2022-08-25T07:08:51;91697.31;;;20.39;46.21
46778;BME280;32536;47.128;8.746;2022-08-25T07:11:18;91701.34;;;20.43;46.08
46778;BME280;32536;47.128;8.746;2022-08-25T07:13:47;91702.66;;;20.48;46.22
46778;BME280;32536;47.128;8.746;2022-08-25T07:16:16;91701.28;;;20.53;46.30
46778;BME280;32536;47.128;8.746;2022-08-25T07:18:45;91695.94;;;20.58;46.19
46778;BME280;32536;47.128;8.746;2022-08-25T07:21:13;91697.28;;;20.63;46.26
46778;BME280;32536;47.128;8.746;2022-08-25T07:23:41;91703.41;;;20.73;46.17
46778;BME280;32536;47.128;8.746;2022-08-25T07:26:11;91699.66;;;20.85;46.12
46778;BME280;32536;47.128;8.746;2022-08-25T07:28:45;91697.41;;;20.99;45.81
46778;BME280;32536;47.128;8.746;2022-08-25T07:31:13;91695.66;;;21.10;46.21
46778;BME280;32536;47.128;8.746;2022-08-25T07:33:40;91691.31;;;21.19;46.03
46778;BME280;32536;47.128;8.746;2022-08-25T07:36:27;91700.88;;;21.29;45.97
46778;BME280;32536;47.128;8.746;2022-08-25T07:38:57;91702.75;;;21.38;45.66
46778;BME280;32536;47.128;8.746;2022-08-25T07:41:25;91702.66;;;21.47;45.80
46778;BME280;32536;47.128;8.746;2022-08-25T07:43:52;91700.88;;;21.59;45.67
46778;BME280;32536;47.128;8.746;2022-08-25T07:46:19;91696.34;;;21.71;45.75
46778;BME280;32536;47.128;8.746;2022-08-25T07:48:45;91694.72;;;21.79;45.76
46778;BME280;32536;47.128;8.746;2022-08-25T07:51:12;91695.84;;;21.87;45.59
46778;BME280;32536;47.128;8.746;2022-08-25T07:53:41;91689.94;;;21.95;45.55
46778;BME280;32536;47.128;8.746;2022-08-25T07:56:10;91687.84;;;22.04;45.64
46778;BME280;32536;47.128;8.746;2022-08-25T07:58:39;91683.28;;;22.16;45.78
46778;BME280;32536;47.128;8.746;2022-08-25T08:01:20;91695.84;;;22.29;45.62
46778;BME280;32536;47.128;8.746;2022-08-25T08:03:49;91697.78;;;22.43;45.62
46778;BME280;32536;47.128;8.746;2022-08-25T08:06:21;91695.94;;;22.55;45.45
46778;BME280;32536;47.128;8.746;2022-08-25T08:08:50;91690.88;;;22.68;45.44
46778;BME280;32536;47.128;8.746;2022-08-25T08:13:52;91704.75;;;22.91;45.46
46778;BME280;32536;47.128;8.746;2022-08-25T08:16:22;91699.88;;;23.01;45.48
46778;BME280;32536;47.128;8.746;2022-08-25T08:18:51;91700.53;;;23.16;44.99
46778;BME280;32536;47.128;8.746;2022-08-25T08:21:37;91704.41;;;23.30;45.29
46778;BME280;32536;47.128;8.746;2022-08-25T08:24:04;91710.00;;;23.47;45.33
46778;BME280;32536;47.128;8.746;2022-08-25T08:26:31;91705.63;;;23.61;45.17
46778;BME280;32536;47.128;8.746;2022-08-25T08:28:59;91703.22;;;23.75;45.32
46778;BME280;32536;47.128;8.746;2022-08-25T08:31:26;91713.81;;;23.93;45.56
46778;BME280;32536;47.128;8.746;2022-08-25T08:34:27;91705.19;;;24.12;45.12
46778;BME280;32536;47.128;8.746;2022-08-25T08:36:55;91707.56;;;24.36;45.37
46778;BME280;32536;47.128;8.746;2022-08-25T08:39:22;91700.16;;;24.48;45.08
46778;BME280;32536;47.128;8.746;2022-08-25T08:56:33;91725.25;;;24.41;44.64
46778;BME280;32536;47.128;8.746;2022-08-25T08:59:08;91716.78;;;24.33;44.46
46778;BME280;32536;47.128;8.746;2022-08-25T09:01:51;91721.47;;;24.27;44.88
46778;BME280;32536;47.128;8.746;2022-08-25T09:04:37;91716.22;;;24.23;44.79
46778;BME280;32536;47.128;8.746;2022-08-25T09:07:18;91719.19;;;24.20;44.89
46778;BME280;32536;47.128;8.746;2022-08-25T09:09:47;91720.94;;;24.23;44.83
46778;BME280;32536;47.128;8.746;2022-08-25T09:12:33;91722.66;;;24.20;44.89
46778;BME280;32536;47.128;8.746;2022-08-25T09:15:21;91728.13;;;24.20;44.85
46778;BME280;32536;47.128;8.746;2022-08-25T09:23:17;91726.69;;;24.25;45.09
46778;BME280;32536;47.128;8.746;2022-08-25T09:31:38;91729.53;;;24.48;45.19
46778;BME280;32536;47.128;8.746;2022-08-25T09:34:31;91734.53;;;24.55;45.07
46778;BME280;32536;47.128;8.746;2022-08-25T09:36:59;91740.09;;;24.66;44.94
46778;BME280;32536;47.128;8.746;2022-08-25T09:39:26;91746.09;;;24.76;44.92
46778;BME280;32536;47.128;8.746;2022-08-25T09:41:55;91734.13;;;24.79;44.76
46778;BME280;32536;47.128;8.746;2022-08-25T09:47:02;91738.94;;;24.96;45.00
46778;BME280;32536;47.128;8.746;2022-08-25T09:49:35;91730.50;;;25.05;44.79
46778;BME280;32536;47.128;8.746;2022-08-25T10:03:10;91725.56;;;25.37;41.28
46778;BME280;32536;47.128;8.746;2022-08-25T10:05:56;91718.34;;;25.46;42.37
46778;BME280;32536;47.128;8.746;2022-08-25T10:11:13;91723.09;;;25.56;43.24
46778;BME280;32536;47.128;8.746;2022-08-25T10:14:05;91727.34;;;25.57;41.39
46778;BME280;32536;47.128;8.746;2022-08-25T10:16:41;91710.13;;;25.63;43.13
46778;BME280;32536;47.128;8.746;2022-08-25T10:19:26;91719.63;;;25.67;42.63
46778;BME280;32536;47.128;8.746;2022-08-25T10:22:06;91714.63;;;25.71;40.26
46778;BME280;32536;47.128;8.746;2022-08-25T10:24:36;91713.13;;;25.76;42.56
46778;BME280;32536;47.128;8.746;2022-08-25T10:30:06;91702.38;;;25.95;42.75
46778;BME280;32536;47.128;8.746;2022-08-25T10:35:58;91694.88;;;26.01;39.40
46778;BME280;32536;47.128;8.746;2022-08-25T10:38:51;91698.84;;;26.06;40.26
46778;BME280;32536;47.128;8.746;2022-08-25T10:50:48;91688.09;;;26.19;41.15
46778;BME280;32536;47.128;8.746;2022-08-25T10:56:26;91688.09;;;26.25;40.95
46778;BME280;32536;47.128;8.746;2022-08-25T10:59:12;91684.09;;;26.26;38.94
46778;BME280;32536;47.128;8.746;2022-08-25T11:05:00;91682.81;;;26.39;38.67
46778;BME280;32536;47.128;8.746;2022-08-25T11:07:38;91685.81;;;26.41;39.60
46778;BME280;32536;47.128;8.746;2022-08-25T11:10:16;91687.28;;;26.47;39.74
46778;BME280;32536;47.128;8.746;2022-08-25T11:12:49;91684.50;;;26.53;40.33
46778;BME280;32536;47.128;8.746;2022-08-25T11:15:32;91691.75;;;26.50;34.89
46778;BME280;32536;47.128;8.746;2022-08-25T11:18:08;91683.47;;;26.56;39.73
46778;BME280;32536;47.128;8.746;2022-08-25T11:21:08;91685.75;;;26.58;38.41
46778;BME280;32536;47.128;8.746;2022-08-25T11:23:51;91685.22;;;26.59;35.91
46778;BME280;32536;47.128;8.746;2022-08-25T11:26:28;91684.22;;;26.62;38.08
46778;BME280;32536;47.128;8.746;2022-08-25T11:29:13;91679.47;;;26.63;36.06
46778;BME280;32536;47.128;8.746;2022-08-25T11:31:50;91678.94;;;26.70;39.67
46778;BME280;32536;47.128;8.746;2022-08-25T11:34:36;91678.66;;;26.74;37.02
46778;BME280;32536;47.128;8.746;2022-08-25T11:37:18;91681.66;;;26.81;38.62
46778;BME280;32536;47.128;8.746;2022-08-25T11:48:00;91672.53;;;27.04;38.14
46778;BME280;32536;47.128;8.746;2022-08-25T11:50:35;91679.75;;;27.07;39.00
46778;BME280;32536;47.128;8.746;2022-08-25T11:53:35;91675.97;;;27.10;39.13
46778;BME280;32536;47.128;8.746;2022-08-25T11:56:52;91679.75;;;27.12;36.10
46778;BME280;32536;47.128;8.746;2022-08-25T11:58:59;91676.47;;;27.14;39.34
46778;BME280;32536;47.128;8.746;2022-08-25T12:12:36;91682.41;;;27.24;37.78
46778;BME280;32536;47.128;8.746;2022-08-25T12:32:56;91688.19;;;27.56;36.48
46778;BME280;32536;47.128;8.746;2022-08-25T12:38:10;91683.56;;;27.70;36.95
46778;BME280;32536;47.128;8.746;2022-08-25T12:49:11;91677.72;;;28.10;35.94
46778;BME280;32536;47.128;8.746;2022-08-25T12:52:09;91682.66;;;28.17;33.47
46778;BME280;32536;47.128;8.746;2022-08-25T12:55:02;91674.78;;;28.27;34.57
46778;BME280;32536;47.128;8.746;2022-08-25T12:57:51;91677.72;;;28.35;35.99
46778;BME280;32536;47.128;8.746;2022-08-25T13:00:44;91665.88;;;28.40;32.75
46778;BME280;32536;47.128;8.746;2022-08-25T13:12:21;91675.34;;;28.64;31.94
46778;BME280;32536;47.128;8.746;2022-08-25T13:14:54;91657.00;;;28.72;35.85
46778;BME280;32536;47.128;8.746;2022-08-25T13:17:30;91664.97;;;28.75;31.54
46778;BME280;32536;47.128;8.746;2022-08-25T13:20:32;91672.13;;;28.84;33.39
46778;BME280;32536;47.128;8.746;2022-08-25T13:22:59;91665.22;;;28.97;35.59
46778;BME280;32536;47.128;8.746;2022-08-25T13:25:28;91654.06;;;29.02;34.86
46778;BME280;32536;47.128;8.746;2022-08-25T13:28:00;91665.28;;;29.10;34.95
46778;BME280;32536;47.128;8.746;2022-08-25T13:30:35;91653.41;;;29.15;31.11
46778;BME280;32536;47.128;8.746;2022-08-25T13:33:21;91652.56;;;29.20;29.73
46778;BME280;32536;47.128;8.746;2022-08-25T13:35:51;91647.44;;;29.30;34.98
46778;BME280;32536;47.128;8.746;2022-08-25T13:38:38;91646.59;;;29.35;34.47
46778;BME280;32536;47.128;8.746;2022-08-25T13:41:06;91643.75;;;29.41;35.43
46778;BME280;32536;47.128;8.746;2022-08-25T13:43:35;91649.50;;;29.43;34.54
46778;BME280;32536;47.128;8.746;2022-08-25T13:46:03;91645.91;;;29.48;35.08
46778;BME280;32536;47.128;8.746;2022-08-25T13:48:39;91639.00;;;29.55;34.43
46778;BME280;32536;47.128;8.746;2022-08-25T13:51:18;91636.91;;;29.61;31.70
46778;BME280;32536;47.128;8.746;2022-08-25T13:53:55;91632.78;;;29.68;35.15
46778;BME280;32536;47.128;8.746;2022-08-25T13:56:32;91642.97;;;29.73;35.33
46778;BME280;32536;47.128;8.746;2022-08-25T13:59:01;91637.56;;;29.81;34.60
46778;BME280;32536;47.128;8.746;2022-08-25T14:01:32;91632.81;;;29.81;34.46
46778;BME280;32536;47.128;8.746;2022-08-25T14:17:45;91631.78;;;29.98;33.94
46778;BME280;32536;47.128;8.746;2022-08-25T14:20:23;91630.31;;;29.97;32.33
46778;BME280;32536;47.128;8.746;2022-08-25T14:22:56;91633.06;;;29.97;34.66
46778;BME280;32536;47.128;8.746;2022-08-25T14:25:28;91622.97;;;29.99;33.70
46778;BME280;32536;47.128;8.746;2022-08-25T14:28:02;91616.38;;;30.02;32.88
46778;BME280;32536;47.128;8.746;2022-08-25T14:30:33;91624.13;;;30.04;34.92
46778;BME280;32536;47.128;8.746;2022-08-25T14:33:02;91623.31;;;30.09;35.24
46778;BME280;32536;47.128;8.746;2022-08-25T14:35:30;91622.44;;;30.14;35.33
46778;BME280;32536;47.128;8.746;2022-08-25T14:37:57;91625.44;;;30.16;35.00
46778;BME280;32536;47.128;8.746;2022-08-25T14:40:33;91619.69;;;30.14;34.63
46778;BME280;32536;47.128;8.746;2022-08-25T14:43:00;91622.97;;;30.13;34.99
46778;BME280;32536;47.128;8.746;2022-08-25T14:45:26;91617.25;;;30.11;34.85
46778;BME280;32536;47.128;8.746;2022-08-25T14:47:54;91617.00;;;30.09;34.79
46778;BME280;32536;47.128;8.746;2022-08-25T14:50:22;91615.34;;;30.06;34.87
46778;BME280;32536;47.128;8.746;2022-08-25T14:52:49;91607.56;;;30.04;34.56
46778;BME280;32536;47.128;8.746;2022-08-25T14:55:16;91614.69;;;29.99;34.93
46778;BME280;32536;47.128;8.746;2022-08-25T14:57:43;91607.03;;;29.92;34.85
46778;BME280;32536;47.128;8.746;2022-08-25T15:00:10;91606.56;;;29.88;35.07
46778;BME280;32536;47.128;8.746;2022-08-25T15:02:40;91609.34;;;29.88;34.85
46778;BME280;32536;47.128;8.746;2022-08-25T15:05:09;91606.56;;;29.88;35.15
46778;BME280;32536;47.128;8.746;2022-08-25T15:07:45;91599.78;;;29.89;34.45
46778;BME280;32536;47.128;8.746;2022-08-25T15:10:30;91608.38;;;29.85;34.96
46778;BME280;32536;47.128;8.746;2022-08-25T15:12:56;91607.31;;;29.75;35.00
46778;BME280;32536;47.128;8.746;2022-08-25T15:15:23;91605.28;;;29.76;35.03
46778;BME280;32536;47.128;8.746;2022-08-25T15:17:54;91599.03;;;29.75;34.79
46778;BME280;32536;47.128;8.746;2022-08-25T15:20:21;91594.25;;;29.76;35.15
46778;BME280;32536;47.128;8.746;2022-08-25T15:22:48;91600.84;;;29.73;35.20
46778;BME280;32536;47.128;8.746;2022-08-25T15:25:14;91603.59;;;29.73;35.11
46778;BME280;32536;47.128;8.746;2022-08-25T15:27:42;91601.34;;;29.71;35.43
46778;BME280;32536;47.128;8.746;2022-08-25T15:30:10;91597.63;;;29.68;35.35
46778;BME280;32536;47.128;8.746;2022-08-25T15:32:37;91602.50;;;29.62;35.12
46778;BME280;32536;47.128;8.746;2022-08-25T15:35:04;91597.63;;;29.55;35.08
46778;BME280;32536;47.128;8.746;2022-08-25T15:37:31;91595.91;;;29.52;35.13
46778;BME280;32536;47.128;8.746;2022-08-25T15:39:58;91592.41;;;29.51;34.99
46778;BME280;32536;47.128;8.746;2022-08-25T15:42:25;91593.16;;;29.52;35.08
46778;BME280;32536;47.128;8.746;2022-08-25T15:44:52;91583.16;;;29.49;35.10
46778;BME280;32536;47.128;8.746;2022-08-25T15:47:20;91589.31;;;29.42;35.17
46778;BME280;32536;47.128;8.746;2022-08-25T15:49:49;91592.19;;;29.36;35.43